Aeroporto :
LOGIN :

Iscrizione | Disclaimer

   EN    FR    IT 

 










Sommario :    VFR   VFR Marginale   IFR   IFR Intensivo   IFR Molto Intensivo
Visibilità : 
Base nubi : 
>= 8 km
>= 3000ft
5 / 8 km
1000 / 3000 ft
1500m / 5 km
500 / 1000 ft
800 / 1500m
200 / 500 ft
< 800m
< 200 ft
Simboli :   Temporali  Nebbia  Neve Forte  Precipitazioni Forti  Vento > 20 kt
SIGMETs :   Varie  Temporali  Ghiacco  Turbolenza  Onda orograficha  Ceneri Vulcaniche






- Altitudine del aeroporto : 1470 ft
- Codice IATA : KLU


LOWK - Klagenfurt

ULTIMO METAR :
  • 271450Z AUTO 09012KT 9999 FEW050 FEW050CB 24/11 Q1017 NOSIG

METARs OBSOLETI :
  • 271420Z AUTO VRB03KT 9999 FEW050CB 24/11 Q1017 NOSIG
  • 271350Z AUTO VRB04KT 9999 FEW050CB 24/09 Q1017 NOSIG
  • 271320Z AUTO VRB02KT 9999 FEW050CB 23/08 Q1018 NOSIG
  • 271250Z AUTO VRB04KT 9999 FEW050CB 23/10 Q1018 NOSIG
  • 271220Z AUTO VRB03KT 9999 FEW050CB 23/11 Q1018 NOSIG
  • 271150Z AUTO 07003KT 010V130 CAVOK 22/11 Q1019 NOSIG
  • 271120Z AUTO VRB04KT CAVOK 22/11 Q1019 NOSIG
  • 271050Z AUTO VRB03KT CAVOK 21/09 Q1020 NOSIG
  • 271020Z AUTO VRB02KT CAVOK 21/11 Q1020 NOSIG

TAF TAF LOWK
Valido dal 27 a 12 ore il 28 a 12 ore UTC


271115Z 2712/2812 VRB05KT 9999 FEW040 TX23/2714Z TN13/2803Z
TEMPO 2712/2719 10009KT FEW050CB SCT060
PROB30
TEMPO 2715/2718 VRB15G25KT TSRA FEW040CB BKN050
TEMPO 2800/2805 1200 BCFG
TEMPO 2810/2812 SHRA FEW040CB BKN050
PROB40
TEMPO 2810/2812 VRB15G25KT 4000 TSRA SCT040CB



MetMap, La meteo Aeronautica in un colpo d'occhio ! - Copyright ORBIFLY Dicembre 2007 - Disclaimer

ORBIFLY MET'MAP TEAM :

Programmazione e sviluppo : Alexandra Zaïnal
Concezione : Baudouin d'Aumeries
Supporto tecnico e logistico : Manuel Goepfert
Aiuto : Marc-Olivier Méhu
Aiuto per la traduzione : Arnaldo La Scala




FONTI E CREDITI :

   NOAA